sensor_id;sensor_type;location;lat;lon;timestamp;temperature;humidity
46752;DHT22;32497;48.936;9.270;2024-02-26T00:03:57;7.50;67.70
46752;DHT22;32497;48.936;9.270;2024-02-26T00:08:58;7.40;67.60
46752;DHT22;32497;48.936;9.270;2024-02-26T00:13:59;7.40;66.70
46752;DHT22;32497;48.936;9.270;2024-02-26T00:19:02;7.40;66.60
46752;DHT22;32497;48.936;9.270;2024-02-26T00:24:03;7.50;66.30
46752;DHT22;32497;48.936;9.270;2024-02-26T00:29:04;7.50;65.70
46752;DHT22;32497;48.936;9.270;2024-02-26T00:34:07;7.50;65.30
46752;DHT22;32497;48.936;9.270;2024-02-26T00:39:08;7.50;65.40
46752;DHT22;32497;48.936;9.270;2024-02-26T00:44:09;7.40;65.80
46752;DHT22;32497;48.936;9.270;2024-02-26T00:49:11;7.20;68.20
46752;DHT22;32497;48.936;9.270;2024-02-26T00:54:12;7.10;68.90
46752;DHT22;32497;48.936;9.270;2024-02-26T00:59:13;7.10;68.70
46752;DHT22;32497;48.936;9.270;2024-02-26T01:04:16;7.00;69.30
46752;DHT22;32497;48.936;9.270;2024-02-26T01:09:17;7.00;69.60
46752;DHT22;32497;48.936;9.270;2024-02-26T01:14:18;7.00;69.30
46752;DHT22;32497;48.936;9.270;2024-02-26T01:19:21;7.00;69.30
46752;DHT22;32497;48.936;9.270;2024-02-26T01:24:22;7.00;68.90
46752;DHT22;32497;48.936;9.270;2024-02-26T01:29:23;7.00;68.00
46752;DHT22;32497;48.936;9.270;2024-02-26T01:34:25;7.10;67.70
46752;DHT22;32497;48.936;9.270;2024-02-26T01:39:26;7.10;68.10
46752;DHT22;32497;48.936;9.270;2024-02-26T01:44:28;7.10;68.10
46752;DHT22;32497;48.936;9.270;2024-02-26T01:49:30;7.10;68.60
46752;DHT22;32497;48.936;9.270;2024-02-26T01:54:33;7.10;68.30
46752;DHT22;32497;48.936;9.270;2024-02-26T01:59:36;7.10;69.80
46752;DHT22;32497;48.936;9.270;2024-02-26T02:04:39;7.10;69.10
46752;DHT22;32497;48.936;9.270;2024-02-26T02:09:40;7.00;69.40
46752;DHT22;32497;48.936;9.270;2024-02-26T02:14:41;6.90;70.30
46752;DHT22;32497;48.936;9.270;2024-02-26T02:19:44;6.90;69.00
46752;DHT22;32497;48.936;9.270;2024-02-26T02:24:48;6.90;70.10
46752;DHT22;32497;48.936;9.270;2024-02-26T02:29:50;6.90;70.20
46752;DHT22;32497;48.936;9.270;2024-02-26T02:34:51;6.90;70.10
46752;DHT22;32497;48.936;9.270;2024-02-26T02:39:53;6.90;69.80
46752;DHT22;32497;48.936;9.270;2024-02-26T02:44:54;6.90;68.60
46752;DHT22;32497;48.936;9.270;2024-02-26T02:49:56;6.90;69.30
46752;DHT22;32497;48.936;9.270;2024-02-26T02:54:58;6.90;69.80
46752;DHT22;32497;48.936;9.270;2024-02-26T02:59:59;6.90;69.90
46752;DHT22;32497;48.936;9.270;2024-02-26T03:05:00;6.90;70.90
46752;DHT22;32497;48.936;9.270;2024-02-26T03:10:03;6.90;72.20
46752;DHT22;32497;48.936;9.270;2024-02-26T03:15:05;6.70;72.70
46752;DHT22;32497;48.936;9.270;2024-02-26T03:20:08;6.70;73.70
46752;DHT22;32497;48.936;9.270;2024-02-26T03:25:11;6.70;74.30
46752;DHT22;32497;48.936;9.270;2024-02-26T03:30:12;6.60;74.40
46752;DHT22;32497;48.936;9.270;2024-02-26T03:35:14;6.60;75.50
46752;DHT22;32497;48.936;9.270;2024-02-26T03:40:16;6.50;74.40
46752;DHT22;32497;48.936;9.270;2024-02-26T03:45:17;6.50;74.90
46752;DHT22;32497;48.936;9.270;2024-02-26T03:50:18;6.50;77.20
46752;DHT22;32497;48.936;9.270;2024-02-26T03:55:23;6.40;75.90
46752;DHT22;32497;48.936;9.270;2024-02-26T04:00:24;6.60;75.90
46752;DHT22;32497;48.936;9.270;2024-02-26T04:05:25;6.60;76.10
46752;DHT22;32497;48.936;9.270;2024-02-26T04:10:27;6.50;76.10
46752;DHT22;32497;48.936;9.270;2024-02-26T04:15:29;6.40;77.20
46752;DHT22;32497;48.936;9.270;2024-02-26T04:20:30;6.30;77.40
46752;DHT22;32497;48.936;9.270;2024-02-26T04:25:32;6.20;77.80
46752;DHT22;32497;48.936;9.270;2024-02-26T04:30:33;6.10;79.30
46752;DHT22;32497;48.936;9.270;2024-02-26T04:35:34;6.10;79.90
46752;DHT22;32497;48.936;9.270;2024-02-26T04:40:37;6.00;80.90
46752;DHT22;32497;48.936;9.270;2024-02-26T04:45:38;5.90;81.20
46752;DHT22;32497;48.936;9.270;2024-02-26T04:50:39;5.70;81.10
46752;DHT22;32497;48.936;9.270;2024-02-26T04:55:41;5.70;81.40
46752;DHT22;32497;48.936;9.270;2024-02-26T05:00:42;5.80;80.10
46752;DHT22;32497;48.936;9.270;2024-02-26T05:05:44;5.90;79.90
46752;DHT22;32497;48.936;9.270;2024-02-26T05:10:46;6.00;79.60
46752;DHT22;32497;48.936;9.270;2024-02-26T05:15:47;6.10;79.60
46752;DHT22;32497;48.936;9.270;2024-02-26T05:20:48;6.20;79.60
46752;DHT22;32497;48.936;9.270;2024-02-26T05:25:51;6.20;79.90
46752;DHT22;32497;48.936;9.270;2024-02-26T05:30:52;6.20;80.30
46752;DHT22;32497;48.936;9.270;2024-02-26T05:35:55;6.10;79.90
46752;DHT22;32497;48.936;9.270;2024-02-26T05:40:57;6.10;80.50
46752;DHT22;32497;48.936;9.270;2024-02-26T05:45:58;6.30;79.00
46752;DHT22;32497;48.936;9.270;2024-02-26T05:51:00;6.20;79.60
46752;DHT22;32497;48.936;9.270;2024-02-26T05:56:02;6.10;79.70
46752;DHT22;32497;48.936;9.270;2024-02-26T06:01:03;6.10;80.40
46752;DHT22;32497;48.936;9.270;2024-02-26T06:06:05;6.10;79.60
46752;DHT22;32497;48.936;9.270;2024-02-26T06:11:07;6.00;80.10
46752;DHT22;32497;48.936;9.270;2024-02-26T06:16:08;5.90;80.70
46752;DHT22;32497;48.936;9.270;2024-02-26T06:21:09;5.90;78.40
46752;DHT22;32497;48.936;9.270;2024-02-26T06:26:12;5.90;81.30
46752;DHT22;32497;48.936;9.270;2024-02-26T06:31:13;6.00;82.20
46752;DHT22;32497;48.936;9.270;2024-02-26T06:36:15;6.00;81.10
46752;DHT22;32497;48.936;9.270;2024-02-26T06:41:18;5.90;82.00
46752;DHT22;32497;48.936;9.270;2024-02-26T06:46:19;5.90;83.10
46752;DHT22;32497;48.936;9.270;2024-02-26T06:51:20;6.00;83.90
46752;DHT22;32497;48.936;9.270;2024-02-26T06:56:22;5.90;83.30
46752;DHT22;32497;48.936;9.270;2024-02-26T07:01:23;6.10;80.70
46752;DHT22;32497;48.936;9.270;2024-02-26T07:06:25;6.20;81.00
46752;DHT22;32497;48.936;9.270;2024-02-26T07:11:27;6.30;80.10
46752;DHT22;32497;48.936;9.270;2024-02-26T07:16:28;6.40;79.40
46752;DHT22;32497;48.936;9.270;2024-02-26T07:21:29;6.40;80.80
46752;DHT22;32497;48.936;9.270;2024-02-26T07:26:32;6.50;81.10
46752;DHT22;32497;48.936;9.270;2024-02-26T07:31:33;6.50;81.50
46752;DHT22;32497;48.936;9.270;2024-02-26T07:36:34;6.60;82.50
46752;DHT22;32497;48.936;9.270;2024-02-26T07:41:36;6.70;81.40
46752;DHT22;32497;48.936;9.270;2024-02-26T07:46:37;6.90;81.30
46752;DHT22;32497;48.936;9.270;2024-02-26T07:51:38;6.90;80.50
46752;DHT22;32497;48.936;9.270;2024-02-26T07:56:41;6.90;81.10
46752;DHT22;32497;48.936;9.270;2024-02-26T08:01:42;7.00;82.50
46752;DHT22;32497;48.936;9.270;2024-02-26T08:06:43;7.20;83.00
46752;DHT22;32497;48.936;9.270;2024-02-26T08:11:46;7.30;83.20
46752;DHT22;32497;48.936;9.270;2024-02-26T08:16:47;7.40;84.00
46752;DHT22;32497;48.936;9.270;2024-02-26T08:21:48;7.40;82.50
46752;DHT22;32497;48.936;9.270;2024-02-26T08:26:50;7.50;84.00
46752;DHT22;32497;48.936;9.270;2024-02-26T08:31:51;7.60;84.70
46752;DHT22;32497;48.936;9.270;2024-02-26T08:36:52;7.70;85.80
46752;DHT22;32497;48.936;9.270;2024-02-26T08:41:55;7.90;85.20
46752;DHT22;32497;48.936;9.270;2024-02-26T08:46:56;7.90;84.80
46752;DHT22;32497;48.936;9.270;2024-02-26T08:51:57;7.60;84.90
46752;DHT22;32497;48.936;9.270;2024-02-26T08:56:59;7.70;86.10
46752;DHT22;32497;48.936;9.270;2024-02-26T09:02:00;7.90;85.50
46752;DHT22;32497;48.936;9.270;2024-02-26T09:07:02;8.10;85.60
46752;DHT22;32497;48.936;9.270;2024-02-26T09:12:05;8.30;84.50
46752;DHT22;32497;48.936;9.270;2024-02-26T09:17:06;8.40;83.60
46752;DHT22;32497;48.936;9.270;2024-02-26T09:22:07;8.60;84.00
46752;DHT22;32497;48.936;9.270;2024-02-26T09:27:10;8.80;82.10
46752;DHT22;32497;48.936;9.270;2024-02-26T09:32:11;9.30;81.40
46752;DHT22;32497;48.936;9.270;2024-02-26T09:37:13;9.80;80.10
46752;DHT22;32497;48.936;9.270;2024-02-26T09:42:18;10.00;79.80
46752;DHT22;32497;48.936;9.270;2024-02-26T09:47:19;10.10;80.40
46752;DHT22;32497;48.936;9.270;2024-02-26T09:52:21;10.00;79.80
46752;DHT22;32497;48.936;9.270;2024-02-26T09:57:26;10.00;79.30
46752;DHT22;32497;48.936;9.270;2024-02-26T10:02:27;9.80;78.10
46752;DHT22;32497;48.936;9.270;2024-02-26T10:07:29;9.80;78.30
46752;DHT22;32497;48.936;9.270;2024-02-26T10:12:31;10.20;78.10
46752;DHT22;32497;48.936;9.270;2024-02-26T10:17:33;10.80;77.60
46752;DHT22;32497;48.936;9.270;2024-02-26T10:22:35;11.10;75.60
46752;DHT22;32497;48.936;9.270;2024-02-26T10:27:37;10.60;76.30
46752;DHT22;32497;48.936;9.270;2024-02-26T10:32:39;10.50;77.30
46752;DHT22;32497;48.936;9.270;2024-02-26T10:37:40;10.50;76.40
46752;DHT22;32497;48.936;9.270;2024-02-26T10:42:43;11.20;75.90
46752;DHT22;32497;48.936;9.270;2024-02-26T10:47:45;11.60;73.20
46752;DHT22;32497;48.936;9.270;2024-02-26T10:52:46;11.70;72.80
46752;DHT22;32497;48.936;9.270;2024-02-26T10:57:52;12.00;71.80
46752;DHT22;32497;48.936;9.270;2024-02-26T11:02:53;12.00;69.70
46752;DHT22;32497;48.936;9.270;2024-02-26T11:07:55;11.80;70.80
46752;DHT22;32497;48.936;9.270;2024-02-26T11:12:59;12.10;68.80
46752;DHT22;32497;48.936;9.270;2024-02-26T11:18:02;12.00;68.50
46752;DHT22;32497;48.936;9.270;2024-02-26T11:23:04;12.20;68.10
46752;DHT22;32497;48.936;9.270;2024-02-26T11:28:10;12.40;67.00
46752;DHT22;32497;48.936;9.270;2024-02-26T11:33:12;12.50;66.80
46752;DHT22;32497;48.936;9.270;2024-02-26T11:38:19;12.60;67.30
46752;DHT22;32497;48.936;9.270;2024-02-26T11:43:50;12.40;65.70
46752;DHT22;32497;48.936;9.270;2024-02-26T11:48:53;12.70;66.00
46752;DHT22;32497;48.936;9.270;2024-02-26T11:53:55;13.10;64.30
46752;DHT22;32497;48.936;9.270;2024-02-26T11:59:04;13.60;61.30
46752;DHT22;32497;48.936;9.270;2024-02-26T12:04:06;14.10;61.30
46752;DHT22;32497;48.936;9.270;2024-02-26T12:09:07;14.40;58.60
46752;DHT22;32497;48.936;9.270;2024-02-26T12:14:18;14.60;55.70
46752;DHT22;32497;48.936;9.270;2024-02-26T12:19:19;14.70;57.10
46752;DHT22;32497;48.936;9.270;2024-02-26T12:24:20;14.70;58.80
46752;DHT22;32497;48.936;9.270;2024-02-26T12:29:23;14.60;58.50
46752;DHT22;32497;48.936;9.270;2024-02-26T12:34:25;14.80;57.30
46752;DHT22;32497;48.936;9.270;2024-02-26T12:39:26;15.20;55.90
46752;DHT22;32497;48.936;9.270;2024-02-26T12:44:29;15.70;52.40
46752;DHT22;32497;48.936;9.270;2024-02-26T12:49:30;16.20;51.80
46752;DHT22;32497;48.936;9.270;2024-02-26T12:54:31;17.00;50.40
46752;DHT22;32497;48.936;9.270;2024-02-26T12:59:35;18.00;45.70
46752;DHT22;32497;48.936;9.270;2024-02-26T13:04:38;18.80;45.00
46752;DHT22;32497;48.936;9.270;2024-02-26T13:09:39;18.40;47.20
46752;DHT22;32497;48.936;9.270;2024-02-26T13:14:42;17.90;47.40
46752;DHT22;32497;48.936;9.270;2024-02-26T13:19:49;17.80;45.40
46752;DHT22;32497;48.936;9.270;2024-02-26T13:24:54;17.70;44.10
46752;DHT22;32497;48.936;9.270;2024-02-26T13:30:05;18.40;43.80
46752;DHT22;32497;48.936;9.270;2024-02-26T13:35:07;18.70;39.60
46752;DHT22;32497;48.936;9.270;2024-02-26T13:40:10;18.40;44.70
46752;DHT22;32497;48.936;9.270;2024-02-26T13:45:13;18.60;44.80
46752;DHT22;32497;48.936;9.270;2024-02-26T13:50:14;18.40;44.60
46752;DHT22;32497;48.936;9.270;2024-02-26T13:55:15;17.60;44.80
46752;DHT22;32497;48.936;9.270;2024-02-26T14:00:19;17.60;46.10
46752;DHT22;32497;48.936;9.270;2024-02-26T14:05:20;18.30;45.10
46752;DHT22;32497;48.936;9.270;2024-02-26T14:10:21;18.10;44.30
46752;DHT22;32497;48.936;9.270;2024-02-26T14:15:24;17.70;45.80
46752;DHT22;32497;48.936;9.270;2024-02-26T14:20:25;17.80;45.00
46752;DHT22;32497;48.936;9.270;2024-02-26T14:25:26;18.30;44.50
46752;DHT22;32497;48.936;9.270;2024-02-26T14:30:29;19.00;43.10
46752;DHT22;32497;48.936;9.270;2024-02-26T14:35:30;18.10;45.30
46752;DHT22;32497;48.936;9.270;2024-02-26T14:40:31;16.90;47.70
46752;DHT22;32497;48.936;9.270;2024-02-26T14:45:33;16.20;48.80
46752;DHT22;32497;48.936;9.270;2024-02-26T14:50:34;16.00;49.20
46752;DHT22;32497;48.936;9.270;2024-02-26T14:55:35;17.40;48.20
46752;DHT22;32497;48.936;9.270;2024-02-26T15:00:38;17.70;46.10
46752;DHT22;32497;48.936;9.270;2024-02-26T15:05:39;17.40;47.20
46752;DHT22;32497;48.936;9.270;2024-02-26T15:10:40;16.40;47.80
46752;DHT22;32497;48.936;9.270;2024-02-26T15:15:43;15.70;51.30
46752;DHT22;32497;48.936;9.270;2024-02-26T15:20:44;15.20;53.00
46752;DHT22;32497;48.936;9.270;2024-02-26T15:25:45;14.90;54.70
46752;DHT22;32497;48.936;9.270;2024-02-26T15:30:48;14.40;57.00
46752;DHT22;32497;48.936;9.270;2024-02-26T15:35:49;14.00;57.30
46752;DHT22;32497;48.936;9.270;2024-02-26T15:40:50;13.90;59.20
46752;DHT22;32497;48.936;9.270;2024-02-26T15:45:52;13.70;59.70
46752;DHT22;32497;48.936;9.270;2024-02-26T15:50:53;13.60;60.10
46752;DHT22;32497;48.936;9.270;2024-02-26T15:55:55;13.20;59.80
46752;DHT22;32497;48.936;9.270;2024-02-26T16:00:57;13.00;59.80
46752;DHT22;32497;48.936;9.270;2024-02-26T16:05:58;12.70;60.10
46752;DHT22;32497;48.936;9.270;2024-02-26T16:11:00;12.50;60.40
46752;DHT22;32497;48.936;9.270;2024-02-26T16:16:05;12.40;59.20
46752;DHT22;32497;48.936;9.270;2024-02-26T16:21:07;12.20;59.30
46752;DHT22;32497;48.936;9.270;2024-02-26T16:26:08;12.10;57.60
46752;DHT22;32497;48.936;9.270;2024-02-26T16:31:10;11.90;56.90
46752;DHT22;32497;48.936;9.270;2024-02-26T16:36:11;11.70;57.10
46752;DHT22;32497;48.936;9.270;2024-02-26T16:41:12;11.60;56.30
46752;DHT22;32497;48.936;9.270;2024-02-26T16:46:15;11.40;56.90
46752;DHT22;32497;48.936;9.270;2024-02-26T16:51:16;11.20;58.00
46752;DHT22;32497;48.936;9.270;2024-02-26T16:56:17;11.10;59.00
46752;DHT22;32497;48.936;9.270;2024-02-26T17:01:19;11.00;60.50
46752;DHT22;32497;48.936;9.270;2024-02-26T17:06:21;10.90;61.10
46752;DHT22;32497;48.936;9.270;2024-02-26T17:11:22;10.70;61.80
46752;DHT22;32497;48.936;9.270;2024-02-26T17:16:24;10.70;62.00
46752;DHT22;32497;48.936;9.270;2024-02-26T17:21:26;10.60;62.70
46752;DHT22;32497;48.936;9.270;2024-02-26T17:26:27;10.60;64.40
46752;DHT22;32497;48.936;9.270;2024-02-26T17:31:29;10.60;64.30
46752;DHT22;32497;48.936;9.270;2024-02-26T17:36:31;10.60;64.50
46752;DHT22;32497;48.936;9.270;2024-02-26T17:41:32;10.50;65.20
46752;DHT22;32497;48.936;9.270;2024-02-26T17:46:34;10.40;65.70
46752;DHT22;32497;48.936;9.270;2024-02-26T17:51:35;10.30;65.30
46752;DHT22;32497;48.936;9.270;2024-02-26T17:56:36;10.20;67.00
46752;DHT22;32497;48.936;9.270;2024-02-26T18:01:39;10.20;67.10
46752;DHT22;32497;48.936;9.270;2024-02-26T18:06:40;10.20;68.00
46752;DHT22;32497;48.936;9.270;2024-02-26T18:11:43;10.10;67.90
46752;DHT22;32497;48.936;9.270;2024-02-26T18:16:45;10.20;67.30
46752;DHT22;32497;48.936;9.270;2024-02-26T18:21:46;10.20;67.70
46752;DHT22;32497;48.936;9.270;2024-02-26T18:26:47;10.20;67.10
46752;DHT22;32497;48.936;9.270;2024-02-26T18:31:50;10.20;67.60
46752;DHT22;32497;48.936;9.270;2024-02-26T18:36:51;10.20;69.20
46752;DHT22;32497;48.936;9.270;2024-02-26T18:41:52;10.10;69.00
46752;DHT22;32497;48.936;9.270;2024-02-26T18:46:55;10.10;68.30
46752;DHT22;32497;48.936;9.270;2024-02-26T18:51:56;10.20;67.80
46752;DHT22;32497;48.936;9.270;2024-02-26T18:56:57;10.10;67.70
46752;DHT22;32497;48.936;9.270;2024-02-26T19:01:59;10.00;68.80
46752;DHT22;32497;48.936;9.270;2024-02-26T19:07:00;10.00;69.30
46752;DHT22;32497;48.936;9.270;2024-02-26T19:12:02;9.80;70.00
46752;DHT22;32497;48.936;9.270;2024-02-26T19:17:05;9.80;68.80
46752;DHT22;32497;48.936;9.270;2024-02-26T19:22:06;9.90;68.30
46752;DHT22;32497;48.936;9.270;2024-02-26T19:27:07;9.90;68.00
46752;DHT22;32497;48.936;9.270;2024-02-26T19:32:09;9.80;67.40
46752;DHT22;32497;48.936;9.270;2024-02-26T19:37:10;9.80;67.40
46752;DHT22;32497;48.936;9.270;2024-02-26T19:42:12;9.80;67.20
46752;DHT22;32497;48.936;9.270;2024-02-26T19:47:14;9.80;68.10
46752;DHT22;32497;48.936;9.270;2024-02-26T19:52:15;9.70;67.40
46752;DHT22;32497;48.936;9.270;2024-02-26T19:57:16;9.70;67.60
46752;DHT22;32497;48.936;9.270;2024-02-26T20:02:19;9.80;67.10
46752;DHT22;32497;48.936;9.270;2024-02-26T20:07:20;9.70;67.50
46752;DHT22;32497;48.936;9.270;2024-02-26T20:12:21;9.70;68.40
46752;DHT22;32497;48.936;9.270;2024-02-26T20:17:23;9.60;68.80
46752;DHT22;32497;48.936;9.270;2024-02-26T20:22:25;9.50;68.50
46752;DHT22;32497;48.936;9.270;2024-02-26T20:27:26;9.60;67.90
46752;DHT22;32497;48.936;9.270;2024-02-26T20:32:28;9.70;67.50
46752;DHT22;32497;48.936;9.270;2024-02-26T20:37:29;9.60;67.50
46752;DHT22;32497;48.936;9.270;2024-02-26T20:42:30;9.70;67.50
46752;DHT22;32497;48.936;9.270;2024-02-26T20:47:33;9.80;68.20
46752;DHT22;32497;48.936;9.270;2024-02-26T20:52:34;9.80;67.20
46752;DHT22;32497;48.936;9.270;2024-02-26T20:57:35;9.70;67.60
46752;DHT22;32497;48.936;9.270;2024-02-26T21:02:38;9.70;67.60
46752;DHT22;32497;48.936;9.270;2024-02-26T21:07:39;9.60;69.10
46752;DHT22;32497;48.936;9.270;2024-02-26T21:12:40;9.50;71.00
46752;DHT22;32497;48.936;9.270;2024-02-26T21:17:43;9.30;71.80
46752;DHT22;32497;48.936;9.270;2024-02-26T21:22:44;9.20;72.30
46752;DHT22;32497;48.936;9.270;2024-02-26T21:27:45;9.10;73.50
46752;DHT22;32497;48.936;9.270;2024-02-26T21:32:48;9.10;73.40
46752;DHT22;32497;48.936;9.270;2024-02-26T21:37:49;9.00;74.60
46752;DHT22;32497;48.936;9.270;2024-02-26T21:42:50;8.90;74.50
46752;DHT22;32497;48.936;9.270;2024-02-26T21:47:52;9.00;74.70
46752;DHT22;32497;48.936;9.270;2024-02-26T21:52:53;8.90;75.90
46752;DHT22;32497;48.936;9.270;2024-02-26T21:57:54;8.80;76.20
46752;DHT22;32497;48.936;9.270;2024-02-26T22:02:57;8.80;75.90
46752;DHT22;32497;48.936;9.270;2024-02-26T22:07:58;8.90;76.10
46752;DHT22;32497;48.936;9.270;2024-02-26T22:12:59;8.80;75.50
46752;DHT22;32497;48.936;9.270;2024-02-26T22:18:02;8.90;75.60
46752;DHT22;32497;48.936;9.270;2024-02-26T22:23:03;8.90;75.50
46752;DHT22;32497;48.936;9.270;2024-02-26T22:28:05;8.90;75.50
46752;DHT22;32497;48.936;9.270;2024-02-26T22:33:07;8.80;76.60
46752;DHT22;32497;48.936;9.270;2024-02-26T22:38:08;8.70;77.30
46752;DHT22;32497;48.936;9.270;2024-02-26T22:43:09;8.70;76.50
46752;DHT22;32497;48.936;9.270;2024-02-26T22:48:12;8.80;75.80
46752;DHT22;32497;48.936;9.270;2024-02-26T22:53:13;8.80;75.70
46752;DHT22;32497;48.936;9.270;2024-02-26T22:58:14;8.70;76.20
46752;DHT22;32497;48.936;9.270;2024-02-26T23:03:16;8.70;76.80
46752;DHT22;32497;48.936;9.270;2024-02-26T23:08:18;8.60;76.80
46752;DHT22;32497;48.936;9.270;2024-02-26T23:13:19;8.60;76.90
46752;DHT22;32497;48.936;9.270;2024-02-26T23:18:21;8.60;76.70
46752;DHT22;32497;48.936;9.270;2024-02-26T23:23:22;8.70;76.70
46752;DHT22;32497;48.936;9.270;2024-02-26T23:28:23;8.70;77.00
46752;DHT22;32497;48.936;9.270;2024-02-26T23:33:26;8.60;77.60
46752;DHT22;32497;48.936;9.270;2024-02-26T23:38:27;8.50;78.50
46752;DHT22;32497;48.936;9.270;2024-02-26T23:43:28;8.40;79.30
46752;DHT22;32497;48.936;9.270;2024-02-26T23:48:30;8.40;79.50
46752;DHT22;32497;48.936;9.270;2024-02-26T23:53:32;8.40;79.90
46752;DHT22;32497;48.936;9.270;2024-02-26T23:58:33;8.40;80.40
